Time;durP1;ratioP1;P1;durP2;ratioP2;P2;SDS_P1;SDS_P2;PMS_P1;PMS_P2;Temp;Humidity;BMP_temperature;BMP_pressure;BME280_temperature;BME280_humidity;BME280_pressure;Samples;Min_cycle;Max_cycle;Signal;HPM_P1;HPM_P2
2023/06/14 00:00:22;;;;;;;5.20;3.15;;;;;;;12.56;100.00;99716.00;6355138;27;20482;-71
2023/06/14 00:03:24;;;;;;;9.40;4.10;;;;;;;12.64;100.00;99723.25;6354833;27;20479;-71
2023/06/14 00:06:25;;;;;;;8.43;3.47;;;;;;;12.64;100.00;99725.88;6355041;27;20047;-71
2023/06/14 00:09:26;;;;;;;7.00;3.83;;;;;;;12.68;100.00;99727.31;6373154;27;20055;-71
2023/06/14 00:12:26;;;;;;;5.47;3.58;;;;;;;12.59;100.00;99722.78;6354659;27;20051;-71
2023/06/14 00:15:27;;;;;;;5.95;3.72;;;;;;;12.43;100.00;99712.63;6354680;27;20058;-71
2023/06/14 00:18:29;;;;;;;7.45;3.53;;;;;;;12.49;100.00;99723.47;6354645;27;20584;-71
2023/06/14 00:21:31;;;;;;;7.40;3.53;;;;;;;12.52;100.00;99718.94;6372704;27;20513;-71
2023/06/14 00:24:31;;;;;;;6.88;3.97;;;;;;;12.53;100.00;99712.78;6354657;27;20047;-71
2023/06/14 00:27:32;;;;;;;5.10;3.38;;;;;;;12.45;100.00;99718.56;6354448;27;20050;-71
2023/06/14 00:30:33;;;;;;;7.43;4.53;;;;;;;12.43;100.00;99708.22;6354425;27;20111;-71
2023/06/14 00:33:36;;;;;;;4.65;2.85;;;;;;;12.41;100.00;99709.28;6354440;27;20055;-71
2023/06/14 00:36:37;;;;;;;5.28;3.15;;;;;;;12.38;100.00;99704.28;6372601;27;20054;-71
2023/06/14 00:39:38;;;;;;;5.85;3.35;;;;;;;12.37;100.00;99702.59;6372451;27;20090;-71
2023/06/14 00:42:38;;;;;;;4.65;3.20;;;;;;;12.34;100.00;99708.91;6354035;27;20054;-71
2023/06/14 00:45:39;;;;;;;8.80;4.00;;;;;;;12.08;100.00;99714.25;6372661;27;20059;-71
2023/06/14 00:48:43;;;;;;;7.18;3.60;;;;;;;12.11;100.00;99713.22;6354230;28;20042;-71
2023/06/14 00:51:45;;;;;;;5.53;2.90;;;;;;;12.17;100.00;99709.28;6372512;28;20066;-71
2023/06/14 00:54:46;;;;;;;5.75;3.50;;;;;;;12.19;100.00;99715.25;6354165;28;20096;-72
2023/06/14 00:57:47;;;;;;;5.72;3.40;;;;;;;12.16;100.00;99712.88;6372317;28;20047;-73
2023/06/14 01:00:48;;;;;;;4.85;3.30;;;;;;;12.08;100.00;99709.03;6376901;27;20088;-73
2023/06/14 01:03:51;;;;;;;10.20;3.00;;;;;;;12.11;100.00;99715.84;6377380;27;20047;-72
2023/06/14 01:07:09;;;;;;;5.13;2.92;;;;;;;12.11;100.00;99710.59;6359332;27;20100;-72
2023/06/14 01:10:32;;;;;;;4.25;2.50;;;;;;;12.01;100.00;99713.03;6377234;27;20474;-72
2023/06/14 01:13:37;;;;;;;6.15;3.13;;;;;;;11.99;100.00;99714.94;6377377;27;20167;-72
2023/06/14 01:16:41;;;;;;;4.15;2.72;;;;;;;11.96;100.00;99719.53;6377762;27;20064;-72
2023/06/14 01:19:45;;;;;;;5.20;3.15;;;;;;;11.80;100.00;99715.38;6359043;27;20051;-72
2023/06/14 01:22:53;;;;;;;6.47;2.97;;;;;;;11.79;100.00;99712.88;6358671;27;20039;-72
2023/06/14 01:25:54;;;;;;;6.35;3.17;;;;;;;11.81;100.00;99717.03;6358938;27;20055;-72
2023/06/14 01:28:58;;;;;;;11.67;3.97;;;;;;;11.69;100.00;99717.91;6376975;27;20111;-72
2023/06/14 01:32:03;;;;;;;6.15;3.47;;;;;;;11.75;100.00;99714.88;6376953;27;20283;-72
2023/06/14 01:35:04;;;;;;;10.45;4.43;;;;;;;11.70;100.00;99720.44;6376738;27;20061;-72
2023/06/14 01:38:06;;;;;;;11.87;4.30;;;;;;;11.61;100.00;99721.09;6376890;27;20051;-72
2023/06/14 01:41:07;;;;;;;9.43;4.57;;;;;;;11.57;100.00;99716.16;6357999;27;20050;-72
2023/06/14 01:44:09;;;;;;;8.30;4.53;;;;;;;11.59;100.00;99719.50;6358488;27;20043;-73
2023/06/14 01:47:10;;;;;;;10.23;4.47;;;;;;;11.56;100.00;99723.19;6358231;27;20047;-72
2023/06/14 01:50:11;;;;;;;9.03;4.70;;;;;;;11.62;100.00;99730.59;6376614;27;20096;-72
2023/06/14 01:53:12;;;;;;;5.60;4.00;;;;;;;11.63;100.00;99732.28;6357714;27;20078;-73
2023/06/14 01:56:12;;;;;;;7.28;4.05;;;;;;;11.61;100.00;99728.94;6376235;27;20047;-72
2023/06/14 01:59:13;;;;;;;8.48;4.40;;;;;;;11.71;100.00;99739.56;6358154;27;20185;-72
2023/06/14 02:02:15;;;;;;;7.25;4.43;;;;;;;11.78;100.00;99739.97;6357760;27;20108;-72
2023/06/14 02:05:18;;;;;;;6.32;3.83;;;;;;;11.72;100.00;99737.81;6357946;27;20528;-72
2023/06/14 02:08:19;;;;;;;14.60;4.35;;;;;;;11.64;100.00;99740.94;6376413;27;20055;-72
2023/06/14 02:11:20;;;;;;;8.07;3.85;;;;;;;11.57;100.00;99739.69;6356793;27;20054;-72
2023/06/14 02:14:20;;;;;;;9.93;4.80;;;;;;;11.56;100.00;99745.88;6375714;27;20150;-72
2023/06/14 02:17:21;;;;;;;7.60;4.25;;;;;;;11.54;100.00;99747.75;6375668;27;20050;-72
2023/06/14 02:20:22;;;;;;;6.80;3.95;;;;;;;11.48;100.00;99738.56;6375639;27;20050;-72
2023/06/14 02:23:23;;;;;;;6.43;3.65;;;;;;;11.50;100.00;99744.50;6357104;27;20739;-72
2023/06/14 02:26:23;;;;;;;8.52;3.83;;;;;;;11.54;100.00;99745.16;6357251;27;20055;-72
2023/06/14 02:29:24;;;;;;;7.05;3.63;;;;;;;11.51;100.00;99746.19;6357253;27;20053;-72
2023/06/14 02:32:26;;;;;;;6.25;3.60;;;;;;;11.52;100.00;99745.25;6356894;27;20088;-73
2023/06/14 02:35:27;;;;;;;7.40;3.78;;;;;;;11.57;100.00;99751.00;6375216;27;20051;-72
2023/06/14 02:38:28;;;;;;;7.10;3.83;;;;;;;11.52;100.00;99750.47;6375371;27;20057;-73
2023/06/14 02:41:29;;;;;;;6.72;3.90;;;;;;;11.52;100.00;99747.03;6375028;27;20051;-73
2023/06/14 02:44:30;;;;;;;5.07;3.08;;;;;;;11.51;100.00;99756.66;6357160;27;20092;-72
2023/06/14 02:47:33;;;;;;;6.50;3.72;;;;;;;11.47;100.00;99752.59;6375536;27;20384;-72
2023/06/14 02:50:34;;;;;;;4.85;3.10;;;;;;;11.45;100.00;99762.31;6375880;27;20054;-72
2023/06/14 02:53:36;;;;;;;5.57;3.33;;;;;;;11.46;100.00;99761.34;6357254;27;20407;-72
2023/06/14 02:56:37;;;;;;;8.05;3.50;;;;;;;11.33;100.00;99760.53;6357224;27;20055;-72
2023/06/14 02:59:40;;;;;;;5.72;2.85;;;;;;;11.45;100.00;99757.06;6357347;27;20058;-71
2023/06/14 03:02:42;;;;;;;5.57;3.63;;;;;;;11.48;100.00;99754.25;6356926;27;20049;-72
2023/06/14 03:05:47;;;;;;;5.88;3.63;;;;;;;11.50;100.00;99755.78;6375577;27;20482;-72
2023/06/14 03:08:48;;;;;;;6.78;3.42;;;;;;;11.57;100.00;99760.59;6375292;27;20065;-73
2023/06/14 03:11:49;;;;;;;5.77;3.07;;;;;;;11.59;100.00;99754.34;6375408;27;20055;-73
2023/06/14 03:14:51;;;;;;;8.52;3.40;;;;;;;11.58;100.00;99760.50;6374838;27;20051;-72
2023/06/14 03:17:54;;;;;;;6.32;2.55;;;;;;;11.60;100.00;99757.78;6357038;27;20047;-73
2023/06/14 03:20:56;;;;;;;5.85;3.40;;;;;;;11.63;100.00;99755.78;6374706;27;20493;-72
2023/06/14 03:23:57;;;;;;;6.43;3.55;;;;;;;11.53;100.00;99752.16;6373470;27;20047;-73
2023/06/14 03:26:58;;;;;;;6.95;3.80;;;;;;;11.53;100.00;99752.16;6355896;27;20054;-73
2023/06/14 03:30:01;;;;;;;6.80;3.75;;;;;;;11.70;100.00;99759.63;6374553;27;20573;-72
2023/06/14 03:33:04;;;;;;;5.95;3.72;;;;;;;11.71;100.00;99752.63;6374620;27;20043;-73
2023/06/14 03:36:09;;;;;;;8.40;3.60;;;;;;;11.72;100.00;99751.69;6356099;27;20377;-72
2023/06/14 03:39:12;;;;;;;7.05;3.70;;;;;;;11.81;100.00;99752.81;6356393;27;20096;-72
2023/06/14 03:42:14;;;;;;;7.05;3.50;;;;;;;11.89;100.00;99760.97;6355840;27;20157;-73
2023/06/14 03:45:17;;;;;;;6.30;3.33;;;;;;;11.92;100.00;99755.53;6374399;27;20051;-73
2023/06/14 03:48:17;;;;;;;5.43;3.35;;;;;;;12.02;100.00;99750.47;6374072;27;20104;-72
2023/06/14 03:51:18;;;;;;;7.57;3.72;;;;;;;12.12;100.00;99753.28;6355950;27;20047;-72
2023/06/14 03:54:19;;;;;;;7.10;4.03;;;;;;;12.13;100.00;99755.78;6355691;27;20093;-73
2023/06/14 03:57:23;;;;;;;8.15;4.93;;;;;;;12.26;100.00;99755.72;6355855;27;20105;-72
2023/06/14 04:00:23;;;;;;;12.60;4.05;;;;;;;12.36;100.00;99756.72;6374146;27;20047;-73
2023/06/14 04:03:24;;;;;;;8.15;3.85;;;;;;;12.46;100.00;99751.66;6355568;27;20088;-73
2023/06/14 04:06:31;;;;;;;10.18;4.93;;;;;;;12.56;100.00;99754.41;6355658;27;20079;-72
2023/06/14 04:09:33;;;;;;;10.18;4.97;;;;;;;12.67;100.00;99757.91;6355632;27;20467;-73
2023/06/14 04:12:34;;;;;;;11.25;5.28;;;;;;;12.80;100.00;99760.44;6373912;27;20055;-73
2023/06/14 04:15:35;;;;;;;11.15;4.97;;;;;;;12.94;100.00;99758.56;6355486;27;20050;-73
2023/06/14 04:18:38;;;;;;;12.50;5.17;;;;;;;13.02;100.00;99757.03;6373929;27;20047;-73
2023/06/14 04:21:42;;;;;;;10.05;5.22;;;;;;;13.09;100.00;99758.25;6373715;27;20058;-72
2023/06/14 04:24:46;;;;;;;8.55;4.60;;;;;;;13.19;100.00;99761.00;6373569;27;20058;-72
2023/06/14 04:27:47;;;;;;;10.48;5.10;;;;;;;13.32;100.00;99763.53;6355087;27;20058;-72
2023/06/14 04:30:47;;;;;;;9.85;5.10;;;;;;;13.40;100.00;99765.56;6355105;27;20051;-72
2023/06/14 04:33:50;;;;;;;9.70;5.20;;;;;;;13.45;100.00;99766.06;6354961;27;20067;-72
2023/06/14 04:36:53;;;;;;;10.73;5.13;;;;;;;13.46;100.00;99762.47;6373607;27;20080;-73
2023/06/14 04:39:55;;;;;;;8.25;4.90;;;;;;;13.54;100.00;99765.31;6373215;27;20058;-72
2023/06/14 04:42:58;;;;;;;8.38;5.03;;;;;;;13.60;100.00;99769.25;6354909;27;20039;-72
2023/06/14 04:46:01;;;;;;;10.02;5.30;;;;;;;13.67;100.00;99763.44;6354978;27;20090;-73
2023/06/14 04:49:02;;;;;;;10.57;5.43;;;;;;;13.81;100.00;99764.13;6373175;28;20047;-72
2023/06/14 04:52:02;;;;;;;10.68;4.88;;;;;;;13.87;100.00;99764.47;6373350;28;20051;-72
2023/06/14 04:55:05;;;;;;;;;;;;;;;14.04;100.00;99775.41;6354962;28;20061;-72
2023/06/14 04:58:06;;;;;;;10.60;4.97;;;;;;;14.08;100.00;99779.44;6373054;28;19920;-72
2023/06/14 05:01:09;;;;;;;11.73;4.65;;;;;;;14.26;100.00;99767.47;6354676;28;20448;-72
2023/06/14 05:15:42;;;;;;;8.77;4.93;;;;;;;14.65;100.00;99778.31;6343751;27;20739;-68
2023/06/14 05:18:43;;;;;;;7.40;4.50;;;;;;;14.75;100.00;99783.66;6343852;28;20052;-68
2023/06/14 05:21:44;;;;;;;11.70;5.07;;;;;;;14.85;100.00;99787.19;6343612;28;20078;-69
2023/06/14 05:24:47;;;;;;;8.93;5.10;;;;;;;15.07;100.00;99791.50;6342362;28;20375;-69
2023/06/14 05:27:48;;;;;;;16.52;5.45;;;;;;;15.20;100.00;99796.53;6343548;28;20067;-69
2023/06/14 05:30:49;;;;;;;10.68;5.25;;;;;;;15.19;100.00;99800.13;6342357;28;20048;-69
2023/06/14 05:33:50;;;;;;;10.10;4.95;;;;;;;15.38;100.00;99801.19;6342347;28;20101;-70
2023/06/14 05:36:51;;;;;;;6.43;4.18;;;;;;;15.47;100.00;99803.88;6343252;28;20050;-69
2023/06/14 05:39:52;;;;;;;8.93;4.47;;;;;;;15.78;100.00;99805.72;6341962;28;20048;-69
2023/06/14 05:42:52;;;;;;;7.75;4.47;;;;;;;15.78;100.00;99809.16;6341787;28;20566;-70
2023/06/14 05:45:53;;;;;;;9.73;5.18;;;;;;;15.98;100.00;99803.94;6342057;28;20051;-70
2023/06/14 05:48:55;;;;;;;8.77;4.47;;;;;;;16.20;100.00;99805.53;6342960;28;20493;-70
2023/06/14 05:51:55;;;;;;;7.93;4.20;;;;;;;16.21;100.00;99813.28;6341920;28;20052;-70
2023/06/14 05:54:56;;;;;;;8.82;4.53;;;;;;;16.24;99.76;99807.75;6342880;28;20056;-70
2023/06/14 05:57:57;;;;;;;7.18;4.30;;;;;;;16.63;99.64;99809.59;6341576;28;20063;-70
2023/06/14 06:00:57;;;;;;;6.13;3.53;;;;;;;16.88;97.96;99811.72;6341437;28;20451;-69
2023/06/14 06:03:58;;;;;;;8.43;4.53;;;;;;;16.89;93.38;99817.81;6342573;28;20048;-69
2023/06/14 06:06:59;;;;;;;5.65;3.78;;;;;;;17.19;90.84;99818.59;6341745;28;20056;-69
2023/06/14 06:10:00;;;;;;;7.43;3.95;;;;;;;17.54;91.42;99820.56;6342887;28;20066;-70
2023/06/14 06:13:00;;;;;;;9.43;3.70;;;;;;;17.92;86.59;99826.72;6330285;28;20477;-69
2023/06/14 06:16:03;;;;;;;6.03;3.47;;;;;;;18.04;84.31;99828.19;6225722;28;20058;-70
2023/06/14 06:19:03;;;;;;;5.68;3.45;;;;;;;17.98;86.20;99828.75;6221261;28;20053;-69
2023/06/14 06:22:06;;;;;;;5.60;3.33;;;;;;;17.92;83.36;99835.44;6222045;28;20143;-70
2023/06/14 06:25:08;;;;;;;4.47;3.33;;;;;;;17.83;86.13;99828.44;6221985;28;20557;-70
2023/06/14 06:28:09;;;;;;;5.43;3.67;;;;;;;18.44;80.79;99832.22;6222028;28;20057;-71
2023/06/14 06:31:11;;;;;;;5.25;3.17;;;;;;;18.44;78.51;99832.22;6220924;28;20050;-71
2023/06/14 06:34:11;;;;;;;5.40;3.58;;;;;;;18.49;79.24;99837.91;6222011;28;20490;-70
2023/06/14 06:37:13;;;;;;;6.60;3.33;;;;;;;18.84;77.39;99835.44;6221798;28;20177;-70
2023/06/14 06:40:16;;;;;;;5.35;3.15;;;;;;;19.06;79.00;99842.88;6221877;28;20050;-71
2023/06/14 06:43:17;;;;;;;7.53;3.40;;;;;;;19.55;76.00;99838.94;6221538;28;20095;-70
2023/06/14 06:46:19;;;;;;;7.88;3.65;;;;;;;19.62;72.76;99838.16;6221885;28;20128;-70
2023/06/14 06:49:20;;;;;;;9.52;3.97;;;;;;;19.88;71.59;99835.47;6221632;28;20558;-71
2023/06/14 06:52:21;;;;;;;6.82;3.45;;;;;;;20.15;74.07;99843.34;6220302;28;20485;-71
2023/06/14 06:55:22;;;;;;;7.13;3.45;;;;;;;20.11;70.46;99837.53;6220352;28;20046;-71
2023/06/14 06:58:25;;;;;;;6.68;3.50;;;;;;;20.17;70.44;99833.44;6220653;28;20045;-70
2023/06/14 07:01:28;;;;;;;7.00;3.13;;;;;;;20.09;69.56;99831.56;6221374;28;20056;-71
2023/06/14 07:04:29;;;;;;;5.93;3.30;;;;;;;20.44;70.96;99840.28;6221527;28;20049;-71
2023/06/14 07:07:30;;;;;;;6.17;3.33;;;;;;;20.54;66.14;99841.78;6221493;28;20058;-71
2023/06/14 07:10:30;;;;;;;6.63;3.33;;;;;;;20.07;67.07;99839.66;6221180;28;20054;-71
2023/06/14 07:13:31;;;;;;;6.07;3.40;;;;;;;19.91;69.20;99850.19;6219867;28;20058;-70
2023/06/14 07:16:32;;;;;;;14.70;3.90;;;;;;;20.31;68.27;99848.69;6219980;28;20533;-70
2023/06/14 07:19:33;;;;;;;5.73;3.73;;;;;;;20.08;69.68;99851.13;6220957;28;20534;-70
2023/06/14 07:22:34;;;;;;;7.72;3.88;;;;;;;19.97;69.59;99854.03;6219470;28;20275;-71
2023/06/14 07:25:35;;;;;;;6.97;4.33;;;;;;;19.55;71.40;99857.44;6219744;28;20054;-71
2023/06/14 07:28:36;;;;;;;10.68;4.32;;;;;;;19.20;72.89;99854.72;6218917;28;20493;-71
2023/06/14 07:31:36;;;;;;;6.80;4.13;;;;;;;19.08;72.66;99853.31;6220638;28;20052;-71
2023/06/14 07:34:37;;;;;;;9.02;3.88;;;;;;;19.10;73.53;99856.63;6219749;28;20520;-70
2023/06/14 07:37:38;;;;;;;6.57;3.63;;;;;;;18.98;74.15;99857.84;6219388;28;20053;-71
2023/06/14 07:40:38;;;;;;;9.80;3.83;;;;;;;19.19;73.82;99855.72;6219534;28;20053;-71
2023/06/14 07:43:39;;;;;;;8.85;3.95;;;;;;;19.56;69.93;99859.09;6219221;28;20087;-71
2023/06/14 07:46:40;;;;;;;7.53;3.22;;;;;;;19.93;68.60;99864.97;6219637;28;20057;-71
2023/06/14 07:49:41;;;;;;;9.10;3.65;;;;;;;20.81;64.91;99865.56;6220775;28;20476;-72
2023/06/14 07:52:41;;;;;;;3.80;3.10;;;;;;;21.21;63.50;99872.69;6219224;28;20264;-70
2023/06/14 07:55:43;;;;;;;5.50;3.27;;;;;;;20.63;64.11;99865.69;6220217;28;20057;-71
2023/06/14 07:58:43;;;;;;;5.00;3.10;;;;;;;20.30;66.31;99863.78;6218981;28;20089;-70
2023/06/14 08:01:46;;;;;;;8.17;3.37;;;;;;;19.98;68.59;99864.47;6218827;28;20056;-71
2023/06/14 08:04:48;;;;;;;4.22;3.00;;;;;;;19.96;69.16;99863.81;6220256;28;20092;-71
2023/06/14 08:07:48;;;;;;;5.72;3.30;;;;;;;20.86;64.12;99866.72;6218951;28;20056;-72
2023/06/14 08:10:49;;;;;;;6.63;3.00;;;;;;;20.57;65.43;99868.94;6219854;28;20418;-71
2023/06/14 08:13:50;;;;;;;5.77;3.10;;;;;;;20.13;63.56;99864.69;6218660;28;20054;-70
2023/06/14 08:16:51;;;;;;;4.97;3.47;;;;;;;21.15;63.42;99870.72;6219720;28;20050;-70
2023/06/14 08:19:54;;;;;;;5.50;3.37;;;;;;;20.99;62.58;99870.72;6218789;28;20054;-71
2023/06/14 08:22:56;;;;;;;5.15;3.13;;;;;;;20.78;63.12;99873.84;6219569;28;20053;-71
2023/06/14 08:25:57;;;;;;;5.28;3.25;;;;;;;20.96;66.21;99881.63;6219843;28;20065;-71
2023/06/14 08:28:58;;;;;;;4.70;3.40;;;;;;;20.88;62.19;99880.66;6219738;28;20187;-70
2023/06/14 08:31:59;;;;;;;6.03;2.87;;;;;;;20.57;63.65;99885.72;6219470;28;20092;-71
2023/06/14 08:35:00;;;;;;;5.95;3.17;;;;;;;20.95;63.32;99886.13;6218522;28;20307;-70
2023/06/14 08:38:03;;;;;;;5.33;3.03;;;;;;;21.76;61.79;99881.72;6219075;28;20056;-71
2023/06/14 08:41:08;;;;;;;3.22;2.17;;;;;;;22.26;58.73;99885.09;6219341;28;20529;-70
2023/06/14 08:44:09;;;;;;;5.57;2.83;;;;;;;22.31;56.86;99894.19;6218114;28;20041;-70
2023/06/14 08:47:11;;;;;;;4.47;2.77;;;;;;;22.68;56.04;99894.47;6218506;28;20100;-71
2023/06/14 08:50:15;;;;;;;5.60;3.00;;;;;;;22.60;55.37;99894.53;6218129;28;20102;-71
2023/06/14 08:53:19;;;;;;;3.45;2.40;;;;;;;21.85;58.85;99891.34;6219274;28;20042;-71
2023/06/14 08:56:21;;;;;;;4.32;2.92;;;;;;;21.75;58.42;99889.91;6219197;28;20132;-71
2023/06/14 08:59:36;;;;;;;6.85;3.00;;;;;;;22.85;58.73;99895.19;6219311;28;20046;-71
2023/06/14 09:02:37;;;;;;;3.55;2.67;;;;;;;22.74;53.72;99889.28;6217759;28;20057;-71
2023/06/14 09:05:38;;;;;;;4.47;2.60;;;;;;;21.76;57.94;99891.53;6218023;28;20054;-71
2023/06/14 09:08:44;;;;;;;5.07;2.95;;;;;;;22.37;55.31;99902.47;6217679;28;20481;-71
2023/06/14 09:11:44;;;;;;;5.72;2.70;;;;;;;22.83;54.29;99895.34;6217749;28;20050;-71
2023/06/14 09:14:45;;;;;;;6.10;2.87;;;;;;;22.59;53.93;99888.41;6218627;28;20061;-71
2023/06/14 09:17:46;;;;;;;4.63;2.93;;;;;;;22.07;56.00;99888.94;6217684;28;20572;-72
2023/06/14 09:20:48;;;;;;;4.63;3.00;;;;;;;21.89;57.36;99895.31;6219006;28;20053;-71
2023/06/14 09:23:48;;;;;;;3.75;2.50;;;;;;;22.31;56.76;99899.50;6218513;28;20050;-71
2023/06/14 09:26:51;;;;;;;6.57;2.53;;;;;;;22.96;53.84;99902.78;6218832;28;20053;-71
2023/06/14 09:29:51;;;;;;;3.92;2.25;;;;;;;23.09;51.85;99905.69;6218632;28;20122;-72
2023/06/14 09:32:53;;;;;;;4.03;2.13;;;;;;;24.05;49.94;99894.44;6217333;28;20046;-72
2023/06/14 09:35:56;;;;;;;7.43;2.22;;;;;;;23.48;52.13;99902.00;6217366;28;20065;-71
2023/06/14 09:38:59;;;;;;;3.45;2.28;;;;;;;22.89;51.64;99893.84;6218714;28;20050;-72
2023/06/14 09:41:59;;;;;;;5.28;2.85;;;;;;;22.76;54.71;99904.25;6217369;28;20103;-71
2023/06/14 09:45:02;;;;;;;6.83;2.53;;;;;;;22.07;54.27;99907.53;6218521;28;20049;-71
2023/06/14 09:48:04;;;;;;;7.00;3.03;;;;;;;21.36;56.85;99904.69;6218318;28;20100;-71
2023/06/14 09:51:06;;;;;;;4.35;2.38;;;;;;;21.20;55.92;99892.25;6220957;28;20061;-71
2023/06/14 09:54:08;;;;;;;;;;;;;;;22.89;52.14;99905.28;6221833;28;20058;-71
2023/06/14 09:57:14;;;;;;;3.22;2.30;;;;;;;23.39;49.93;99892.47;6222396;28;19921;-71
2023/06/14 10:00:18;;;;;;;3.67;2.25;;;;;;;24.08;53.44;99896.75;6221435;28;20099;-71
2023/06/14 10:03:29;;;;;;;4.47;2.50;;;;;;;23.70;50.02;99891.47;6221014;28;20184;-71
2023/06/14 10:06:31;;;;;;;3.07;2.33;;;;;;;23.65;49.64;99892.03;6221267;28;20489;-71
2023/06/14 10:09:34;;;;;;;4.57;2.40;;;;;;;21.59;52.92;99907.50;6221028;28;20050;-70
2023/06/14 10:12:34;;;;;;;5.05;2.80;;;;;;;22.69;50.92;99912.06;6222249;28;20045;-70
2023/06/14 10:16:06;;;;;;;4.40;2.37;;;;;;;24.17;51.44;99897.47;6220682;28;20058;-71
2023/06/14 10:19:37;;;;;;;5.63;2.95;;;;;;;24.82;46.99;99896.59;6221068;28;20054;-71
2023/06/14 10:22:49;;;;;;;3.13;1.95;;;;;;;24.34;48.75;99897.06;6220948;28;20052;-71
2023/06/14 10:25:55;;;;;;;4.75;2.15;;;;;;;24.67;47.83;99896.66;6220715;28;20054;-72
2023/06/14 10:29:09;;;;;;;4.82;2.35;;;;;;;25.02;47.01;99901.28;6220945;28;20046;-71
2023/06/14 10:32:10;;;;;;;4.03;2.55;;;;;;;25.25;44.70;99896.59;6220508;28;20045;-71
2023/06/14 10:35:16;;;;;;;2.63;2.08;;;;;;;24.69;45.95;99893.81;6220631;28;20451;-70
2023/06/14 10:38:31;;;;;;;2.55;2.08;;;;;;;25.09;44.12;99889.66;6220508;28;20618;-71
2023/06/14 10:41:36;;;;;;;4.25;2.05;;;;;;;25.73;44.78;99880.69;6221624;28;20460;-72
2023/06/14 10:44:43;;;;;;;2.33;2.00;;;;;;;25.63;46.09;99880.22;6220391;28;20507;-70
2023/06/14 10:47:43;;;;;;;2.75;1.83;;;;;;;24.74;45.27;99880.72;6220609;28;20144;-72
2023/06/14 10:50:49;;;;;;;2.50;1.60;;;;;;;25.24;45.17;99875.44;6221501;28;20058;-72
2023/06/14 10:53:51;;;;;;;2.13;1.80;;;;;;;25.64;43.84;99873.06;6221446;28;20042;-71
2023/06/14 10:56:53;;;;;;;2.78;1.80;;;;;;;25.52;42.09;99868.22;6220282;28;20542;-71
2023/06/14 10:59:55;;;;;;;2.60;1.80;;;;;;;25.68;40.08;99868.97;6220299;28;20512;-71
2023/06/14 11:03:40;;;;;;;2.08;1.88;;;;;;;26.18;42.12;99874.97;6220100;28;20099;-72
2023/06/14 11:06:49;;;;;;;3.53;2.00;;;;;;;27.03;41.16;99878.06;6290501;28;20052;-72
2023/06/14 11:10:10;;;;;;;3.15;1.85;;;;;;;26.32;42.57;99879.34;6221214;28;20106;-71
2023/06/14 11:13:12;;;;;;;4.47;2.10;;;;;;;25.48;43.70;99869.66;6220823;28;20098;-71
2023/06/14 11:16:13;;;;;;;2.63;2.00;;;;;;;25.53;42.77;99871.72;6219853;28;20057;-71
2023/06/14 11:19:17;;;;;;;3.53;1.90;;;;;;;26.01;42.34;99871.03;6220050;28;20050;-71
2023/06/14 11:22:18;;;;;;;2.45;2.20;;;;;;;26.77;43.60;99872.69;6219900;28;20133;-71
2023/06/14 11:25:21;;;;;;;2.65;2.05;;;;;;;26.40;42.36;99869.47;6221071;28;20057;-71
2023/06/14 11:28:23;;;;;;;3.60;2.10;;;;;;;26.62;40.96;99875.56;6219711;28;20081;-71
2023/06/14 11:31:25;;;;;;;3.03;1.63;;;;;;;26.72;39.96;99870.63;6219643;28;20455;-71
2023/06/14 11:34:26;;;;;;;2.72;2.10;;;;;;;27.37;41.79;99860.19;6220673;28;20562;-71
2023/06/14 11:37:28;;;;;;;4.35;1.83;;;;;;;27.40;37.82;99858.94;6219638;28;20485;-71
2023/06/14 11:40:29;;;;;;;2.65;1.95;;;;;;;27.51;39.84;99858.31;6219980;28;20057;-71
2023/06/14 11:43:33;;;;;;;2.70;1.90;;;;;;;26.67;40.19;99857.06;6219385;28;20130;-71
2023/06/14 11:46:34;;;;;;;2.85;1.55;;;;;;;26.73;38.27;99850.88;6219608;28;20275;-71
2023/06/14 11:49:36;;;;;;;2.63;1.73;;;;;;;25.95;42.23;99848.56;6219336;28;20103;-71
2023/06/14 11:52:37;;;;;;;2.78;1.92;;;;;;;25.32;41.88;99836.03;6219357;28;20053;-71
2023/06/14 11:55:40;;;;;;;4.18;1.90;;;;;;;25.47;42.53;99843.97;6219120;28;20050;-71
2023/06/14 11:58:43;;;;;;;3.35;1.90;;;;;;;25.78;40.21;99850.72;6219275;28;20512;-72
2023/06/14 12:01:45;;;;;;;3.15;1.85;;;;;;;26.38;41.61;99837.63;6220250;28;20391;-71
2023/06/14 12:04:49;;;;;;;2.63;2.10;;;;;;;26.80;39.72;99845.53;6220314;28;20046;-71
2023/06/14 12:07:53;;;;;;;2.33;2.00;;;;;;;26.54;40.34;99841.75;6219091;28;20485;-71
2023/06/14 12:10:54;;;;;;;2.58;1.67;;;;;;;26.32;39.51;99843.78;6220320;28;20500;-72
2023/06/14 12:13:56;;;;;;;3.83;2.00;;;;;;;26.21;40.56;99839.00;6217950;28;20061;-72
2023/06/14 12:17:07;;;;;;;3.75;2.10;;;;;;;25.68;42.76;99829.72;6219971;28;20060;-71
2023/06/14 12:20:22;;;;;;;2.90;1.73;;;;;;;25.11;43.50;99833.41;6218835;28;20050;-72
2023/06/14 12:23:23;;;;;;;5.18;2.40;;;;;;;24.02;44.67;99821.03;6220236;28;20045;-71
2023/06/14 12:26:26;;;;;;;2.72;1.90;;;;;;;24.63;41.36;99831.38;6219943;28;20092;-71
2023/06/14 12:29:27;;;;;;;4.20;1.95;;;;;;;24.56;42.76;99833.13;6218653;28;20058;-71
2023/06/14 12:32:29;;;;;;;2.00;1.80;;;;;;;25.33;42.46;99828.88;6218851;28;20102;-72
2023/06/14 12:35:30;;;;;;;3.13;2.03;;;;;;;25.09;42.79;99820.25;6219537;28;20378;-72
2023/06/14 12:38:31;;;;;;;2.47;1.70;;;;;;;26.34;43.37;99828.34;6218699;28;20050;-72
2023/06/14 12:41:32;;;;;;;2.08;1.70;;;;;;;26.61;41.10;99825.75;6219637;28;20065;-72
2023/06/14 12:44:35;;;;;;;3.47;1.65;;;;;;;26.53;39.88;99829.41;6218485;28;20073;-72
2023/06/14 12:47:36;;;;;;;2.22;1.88;;;;;;;26.42;40.39;99816.63;6219519;28;20050;-70
2023/06/14 12:50:37;;;;;;;3.50;2.15;;;;;;;26.51;42.76;99812.75;6219682;28;20054;-71
2023/06/14 12:53:37;;;;;;;2.53;1.42;;;;;;;26.38;41.08;99813.53;6218257;28;20053;-71
2023/06/14 12:56:38;;;;;;;2.13;1.57;;;;;;;25.13;41.45;99810.84;6218142;28;20054;-71
2023/06/14 12:59:39;;;;;;;3.55;1.80;;;;;;;25.50;41.61;99810.69;6219251;28;20462;-71
2023/06/14 13:02:40;;;;;;;3.33;1.38;;;;;;;26.24;40.31;99817.22;6218069;28;20087;-71
2023/06/14 13:05:42;;;;;;;1.98;1.70;;;;;;;25.86;38.46;99810.47;6219123;28;20488;-71
2023/06/14 13:08:43;;;;;;;2.25;2.05;;;;;;;26.28;37.59;99802.41;6218964;28;20056;-71
2023/06/14 13:11:45;;;;;;;2.72;1.90;;;;;;;25.38;37.17;99809.59;6219254;28;20050;-71
2023/06/14 13:14:49;;;;;;;2.70;1.90;;;;;;;24.97;40.11;99797.78;6217337;28;20493;-71
2023/06/14 13:17:50;;;;;;;2.10;1.58;;;;;;;24.58;41.97;99804.41;6218025;28;20061;-71
2023/06/14 13:20:51;;;;;;;2.70;2.00;;;;;;;24.58;41.24;99793.75;6217740;28;20103;-71
2023/06/14 13:23:52;;;;;;;2.23;1.50;;;;;;;24.55;40.26;99799.47;6218923;28;20401;-71
2023/06/14 13:26:52;;;;;;;2.33;1.87;;;;;;;25.23;42.66;99789.16;6221609;28;20283;-72
2023/06/14 13:29:54;;;;;;;2.90;1.70;;;;;;;25.10;39.58;99791.72;6223270;28;20283;-71
2023/06/14 13:32:55;;;;;;;2.45;1.90;;;;;;;25.60;42.73;99797.00;6222036;28;20486;-72
2023/06/14 13:35:56;;;;;;;4.10;1.73;;;;;;;26.03;36.73;99791.44;6222965;28;20493;-72
2023/06/14 13:38:58;;;;;;;5.40;2.47;;;;;;;24.84;38.64;99784.34;6222028;28;20052;-72
2023/06/14 13:41:59;;;;;;;2.42;1.80;;;;;;;25.43;41.74;99789.31;6222931;28;20046;-71
2023/06/14 13:45:00;;;;;;;2.15;1.52;;;;;;;26.03;38.72;99791.44;6223224;28;20073;-72
2023/06/14 13:48:01;;;;;;;2.20;1.77;;;;;;;25.88;39.74;99796.91;6222816;28;20072;-71
2023/06/14 13:51:04;;;;;;;2.77;1.53;;;;;;;26.27;36.03;99790.06;6221923;28;20068;-71
2023/06/14 14:05:47;;;;;;;2.78;1.48;;;;;;;25.73;35.51;99794.38;6394930;27;20370;-70
2023/06/14 14:08:48;;;;;;;2.55;1.60;;;;;;;26.12;36.03;99793.72;6428588;27;20042;-69
2023/06/14 14:11:49;;;;;;;3.08;1.60;;;;;;;25.81;35.29;99791.53;6394745;27;20055;-69
2023/06/14 14:14:50;;;;;;;1.55;1.45;;;;;;;25.42;35.67;99798.31;6394653;27;20046;-70
2023/06/14 14:17:51;;;;;;;4.15;1.50;;;;;;;25.26;36.62;99796.78;6394695;27;20088;-70
2023/06/14 14:20:54;;;;;;;1.85;1.67;;;;;;;25.16;36.32;99790.09;6394785;27;20095;-70
2023/06/14 14:23:55;;;;;;;4.22;1.60;;;;;;;25.31;35.63;99789.03;6394381;27;20100;-70
2023/06/14 14:26:59;;;;;;;2.75;1.90;;;;;;;25.69;37.67;99796.59;6394748;27;20485;-70
2023/06/14 14:30:00;;;;;;;9.82;1.65;;;;;;;25.52;34.79;99784.63;6394429;27;20050;-69
2023/06/14 14:33:01;;;;;;;5.47;1.80;;;;;;;25.50;35.32;99784.00;6392921;27;20128;-70
2023/06/14 14:36:03;;;;;;;2.20;1.70;;;;;;;25.61;36.40;99791.44;6393281;27;20050;-70